createdAt,value
2022-10-14T00:03:26.495Z,5.90
2022-10-14T00:08:28.895Z,5.90
2022-10-14T00:13:31.949Z,5.90
2022-10-14T00:18:34.292Z,5.80
2022-10-14T00:23:36.805Z,5.90
2022-10-14T00:28:39.419Z,5.90
2022-10-14T00:33:42.235Z,5.80
2022-10-14T00:38:48.309Z,5.70
2022-10-14T00:44:10.965Z,5.70
2022-10-14T00:49:25.526Z,5.80
2022-10-14T00:54:33.883Z,6.00
2022-10-14T00:59:37.414Z,5.90
2022-10-14T01:04:42.607Z,6.00
2022-10-14T01:10:03.192Z,5.90
2022-10-14T01:15:22.222Z,5.90
2022-10-14T01:20:56.220Z,6.10
2022-10-14T01:26:26.393Z,6.30
2022-10-14T01:31:33.858Z,6.30
2022-10-14T01:36:45.871Z,6.20
2022-10-14T01:41:56.266Z,6.20
2022-10-14T01:47:02.660Z,6.10
2022-10-14T01:52:22.745Z,6.30
2022-10-14T01:57:29.050Z,6.10
2022-10-14T02:02:37.515Z,6.10
2022-10-14T02:07:45.001Z,6.30
2022-10-14T02:13:00.502Z,6.40
2022-10-14T02:18:22.331Z,6.40
2022-10-14T02:23:30.518Z,6.40
2022-10-14T02:28:34.968Z,6.50
2022-10-14T02:33:45.442Z,6.40
2022-10-14T02:38:49.696Z,6.30
2022-10-14T02:43:52.969Z,6.30
2022-10-14T02:48:55.420Z,6.30
2022-10-14T02:53:57.985Z,6.20
2022-10-14T02:59:02.278Z,6.00
2022-10-14T03:04:05.973Z,5.80
2022-10-14T03:09:09.049Z,5.60
2022-10-14T03:14:15.530Z,5.50
2022-10-14T03:19:18.787Z,5.50
2022-10-14T03:24:24.826Z,5.60
2022-10-14T03:29:47.156Z,5.90
2022-10-14T03:34:55.354Z,6.20
2022-10-14T03:40:00.274Z,6.30
2022-10-14T03:45:03.441Z,6.50
2022-10-14T03:50:07.564Z,6.60
2022-10-14T03:55:16.326Z,6.70
2022-10-14T04:00:21.491Z,6.70
2022-10-14T04:05:34.936Z,6.60
2022-10-14T04:10:44.017Z,6.50
2022-10-14T04:15:50.421Z,6.50
2022-10-14T04:21:03.886Z,6.40
2022-10-14T04:26:09.533Z,6.30
2022-10-14T04:31:13.852Z,6.30
2022-10-14T04:36:27.633Z,6.20
2022-10-14T04:41:35.030Z,6.10
2022-10-14T04:46:37.985Z,6.20
2022-10-14T04:51:40.876Z,6.10
2022-10-14T04:57:05.069Z,6.10
2022-10-14T05:02:09.352Z,6.20
2022-10-14T05:07:17.295Z,6.60
2022-10-14T05:12:22.477Z,6.60
2022-10-14T05:17:32.899Z,6.60
2022-10-14T05:22:36.322Z,6.40
2022-10-14T05:27:39.903Z,6.40
2022-10-14T05:32:42.478Z,6.30
2022-10-14T05:37:46.087Z,6.30
2022-10-14T05:42:48.717Z,6.30
2022-10-14T05:47:51.313Z,6.50
2022-10-14T05:52:55.136Z,6.70
2022-10-14T05:58:02.392Z,6.90
2022-10-14T06:03:13.149Z,7.10
2022-10-14T06:08:16.572Z,7.20
2022-10-14T06:13:21.439Z,7.20
2022-10-14T06:18:24.133Z,7.20
2022-10-14T06:23:27.159Z,7.40
2022-10-14T06:28:29.803Z,7.40
2022-10-14T06:33:32.863Z,7.60
2022-10-14T06:38:35.249Z,7.60
2022-10-14T06:43:38.146Z,7.50
2022-10-14T06:48:40.943Z,7.40
2022-10-14T06:53:43.342Z,7.50
2022-10-14T06:58:46.128Z,7.70
2022-10-14T07:03:52.815Z,8.10
2022-10-14T07:08:58.508Z,8.40
2022-10-14T07:14:01.039Z,8.80
2022-10-14T07:19:03.753Z,9.10
2022-10-14T07:24:06.461Z,9.40
2022-10-14T07:29:09.011Z,9.70
2022-10-14T07:34:11.494Z,10.00
2022-10-14T07:39:14.262Z,10.30
2022-10-14T07:44:17.358Z,10.50
2022-10-14T07:49:21.448Z,10.80
2022-10-14T07:54:26.783Z,11.00
2022-10-14T07:59:29.301Z,11.20
2022-10-14T08:04:31.917Z,11.00
2022-10-14T08:09:35.962Z,11.00
2022-10-14T08:14:38.434Z,11.40
2022-10-14T08:19:40.877Z,11.60
2022-10-14T08:24:44.433Z,11.70
2022-10-14T08:29:47.160Z,11.90
2022-10-14T08:34:50.055Z,11.90
2022-10-14T08:39:52.579Z,12.10
2022-10-14T08:45:17.191Z,12.20
2022-10-14T08:50:33.149Z,12.40
2022-10-14T08:55:50.353Z,12.40
2022-10-14T09:00:53.682Z,12.40
2022-10-14T09:06:28.997Z,12.70
2022-10-14T09:11:38.817Z,13.10
2022-10-14T09:16:42.484Z,13.10
2022-10-14T09:21:54.110Z,13.40
2022-10-14T09:27:24.669Z,13.70
2022-10-14T09:32:35.467Z,13.80
2022-10-14T09:37:37.878Z,13.70
2022-10-14T09:42:59.254Z,13.90
2022-10-14T09:48:08.058Z,13.70
2022-10-14T09:53:34.604Z,14.00
2022-10-14T09:58:45.482Z,14.30
2022-10-14T10:03:50.135Z,14.60
2022-10-14T10:09:00.049Z,14.60
2022-10-14T10:14:22.892Z,14.60
2022-10-14T10:19:32.882Z,14.60
2022-10-14T10:24:35.461Z,14.70
2022-10-14T10:29:37.941Z,14.80
2022-10-14T10:35:26.729Z,14.90
2022-10-14T10:40:57.949Z,15.10
2022-10-14T10:46:20.529Z,15.60
2022-10-14T10:51:59.976Z,15.70
2022-10-14T10:57:24.975Z,15.80
2022-10-14T11:02:33.340Z,16.20
2022-10-14T11:08:15.918Z,16.40
2022-10-14T11:13:45.345Z,16.80
2022-10-14T11:19:15.256Z,17.10
2022-10-14T11:24:42.001Z,17.30
2022-10-14T11:30:14.046Z,17.30
2022-10-14T11:35:28.402Z,17.20
2022-10-14T11:40:44.226Z,17.00
2022-10-14T11:46:02.387Z,16.90
2022-10-14T11:51:35.689Z,17.10
2022-10-14T11:56:56.787Z,17.10
2022-10-14T12:02:15.214Z,16.80
2022-10-14T12:07:23.804Z,16.70
2022-10-14T12:12:26.970Z,16.40
2022-10-14T12:17:35.370Z,16.20
2022-10-14T12:22:39.002Z,16.20
2022-10-14T12:27:41.794Z,16.00
2022-10-14T12:33:13.469Z,16.00
2022-10-14T12:38:19.101Z,15.90
2022-10-14T12:43:29.533Z,16.10
2022-10-14T12:48:33.554Z,16.40
2022-10-14T12:53:36.944Z,16.80
2022-10-14T12:58:42.491Z,16.30
2022-10-14T13:03:56.360Z,16.30
2022-10-14T13:09:15.325Z,16.50
2022-10-14T13:14:25.993Z,16.50
2022-10-14T13:19:34.416Z,17.10
2022-10-14T13:24:41.784Z,16.50
2022-10-14T13:29:50.974Z,16.30
2022-10-14T13:35:02.466Z,16.20
2022-10-14T13:40:19.970Z,16.10
2022-10-14T13:45:25.328Z,16.20
2022-10-14T13:50:33.778Z,16.20
2022-10-14T13:55:42.883Z,16.20
2022-10-14T14:00:50.604Z,16.40
2022-10-14T14:05:53.519Z,16.60
2022-10-14T14:11:15.752Z,16.70
2022-10-14T14:16:24.941Z,16.70
2022-10-14T14:21:27.764Z,16.50
2022-10-14T14:26:37.268Z,16.30
2022-10-14T14:37:32.021Z,15.80
2022-10-14T14:42:36.183Z,15.70
2022-10-14T14:47:38.848Z,15.50
2022-10-14T14:52:42.234Z,15.30
2022-10-14T14:57:55.290Z,15.00
2022-10-14T15:02:59.619Z,16.10
2022-10-14T15:08:02.845Z,14.10
2022-10-14T15:13:05.276Z,13.60
2022-10-14T15:18:26.185Z,13.40
2022-10-14T15:23:40.956Z,13.20
2022-10-14T15:28:43.481Z,13.00
2022-10-14T15:33:48.865Z,13.10
2022-10-14T15:38:56.250Z,12.60
2022-10-14T15:44:00.300Z,12.20
2022-10-14T15:49:13.930Z,12.00
2022-10-14T15:54:16.364Z,11.80
2022-10-14T15:59:19.544Z,11.50
2022-10-14T16:04:24.631Z,11.20
2022-10-14T16:09:27.833Z,11.00
2022-10-14T16:14:30.313Z,11.10
2022-10-14T16:19:33.287Z,11.20
2022-10-14T16:24:35.713Z,11.20
2022-10-14T16:29:41.388Z,10.50
2022-10-14T16:34:43.741Z,10.00
2022-10-14T16:39:46.444Z,9.70
2022-10-14T16:44:49.003Z,9.70
2022-10-14T16:49:52.047Z,9.50
2022-10-14T16:54:54.477Z,9.10
2022-10-14T16:59:57.352Z,9.00
2022-10-14T17:04:59.869Z,8.80
2022-10-14T17:10:02.338Z,8.80
2022-10-14T17:15:05.694Z,9.00
2022-10-14T17:20:09.375Z,8.80
2022-10-14T17:25:12.316Z,8.60
2022-10-14T17:30:14.641Z,8.70
2022-10-14T17:35:17.524Z,8.80
2022-10-14T17:40:22.228Z,8.70
2022-10-14T17:45:24.627Z,8.80
2022-10-14T17:50:28.009Z,8.80
2022-10-14T17:55:30.570Z,8.70
2022-10-14T18:00:33.195Z,8.70
2022-10-14T18:05:38.003Z,8.70
2022-10-14T18:10:40.328Z,9.00
2022-10-14T18:15:43.915Z,9.20
2022-10-14T18:20:46.388Z,9.30
2022-10-14T18:25:48.800Z,9.40
2022-10-14T18:30:51.306Z,9.50
2022-10-14T18:35:54.936Z,9.60
2022-10-14T18:41:01.149Z,9.80
2022-10-14T18:46:04.281Z,9.90
2022-10-14T18:51:06.673Z,10.10
2022-10-14T18:56:16.550Z,10.30
2022-10-14T19:01:19.088Z,10.30
2022-10-14T19:06:22.062Z,10.40
2022-10-14T19:11:25.347Z,10.30
2022-10-14T19:16:28.898Z,10.00
2022-10-14T19:21:31.744Z,9.80
2022-10-14T19:26:35.267Z,10.00
2022-10-14T19:31:37.943Z,9.80
2022-10-14T19:36:40.822Z,9.80
2022-10-14T19:41:45.098Z,9.90
2022-10-14T19:46:47.760Z,9.70
2022-10-14T19:51:50.175Z,9.50
2022-10-14T19:56:52.597Z,9.30
2022-10-14T20:01:55.190Z,9.30
2022-10-14T20:06:57.639Z,9.30
2022-10-14T20:12:00.028Z,9.20
2022-10-14T20:17:03.753Z,8.90
2022-10-14T20:22:06.027Z,8.80
2022-10-14T20:27:11.083Z,8.40
2022-10-14T20:32:14.609Z,8.50
2022-10-14T20:37:17.052Z,8.60
2022-10-14T20:42:19.384Z,8.80
2022-10-14T20:47:22.067Z,9.00
2022-10-14T20:52:24.698Z,9.00
2022-10-14T20:57:29.756Z,9.00
2022-10-14T21:02:32.147Z,9.00
2022-10-14T21:07:34.674Z,9.10
2022-10-14T21:12:36.970Z,9.00
2022-10-14T21:17:39.517Z,9.00
2022-10-14T21:22:42.240Z,9.10
2022-10-14T21:27:44.582Z,9.00
2022-10-14T21:32:47.082Z,8.80
2022-10-14T21:37:51.782Z,8.90
2022-10-14T21:42:54.166Z,9.00
2022-10-14T21:47:56.436Z,9.00
2022-10-14T21:52:58.864Z,9.00
2022-10-14T21:58:01.375Z,8.90
2022-10-14T22:03:03.809Z,8.90
2022-10-14T22:08:06.446Z,8.90
2022-10-14T22:13:10.171Z,8.80
2022-10-14T22:18:12.537Z,8.70
2022-10-14T22:23:14.895Z,8.50
2022-10-14T22:28:17.294Z,8.20
2022-10-14T22:33:19.643Z,8.30
2022-10-14T22:38:21.923Z,8.40
2022-10-14T22:43:24.285Z,8.70
2022-10-14T22:48:26.503Z,8.90
2022-10-14T22:53:28.949Z,9.00
2022-10-14T22:58:31.604Z,8.90
2022-10-14T23:03:34.726Z,8.90
2022-10-14T23:08:37.277Z,9.00
2022-10-14T23:13:39.936Z,9.40
2022-10-14T23:23:51.045Z,8.70
2022-10-14T23:28:54.763Z,8.60
2022-10-14T23:34:01.316Z,8.70
2022-10-14T23:39:03.994Z,8.70
2022-10-14T23:44:06.402Z,8.80
2022-10-14T23:49:25.023Z,8.80
2022-10-14T23:54:28.610Z,9.00
2022-10-14T23:59:30.929Z,9.20
